Time;durP1;ratioP1;P1;durP2;ratioP2;P2;SDS_P1;SDS_P2;PMS_P1;PMS_P2;Temp;Humidity;BMP_temperature;BMP_pressure;BME280_temperature;BME280_humidity;BME280_pressure;Samples;Min_cycle;Max_cycle;Signal;HPM_P1;HPM_P2
2023/02/01 00:00:07;;;;;;;;;7.00;7.00;;;;;-146.39;100.00;62182.44;6301968;20;1808706;-59
2023/02/01 00:02:39;;;;;;;;;12.50;7.50;;;;;-146.39;100.00;62182.44;6298815;20;2765000;-60
2023/02/01 00:05:11;;;;;;;;;6.50;6.50;;;;;-146.39;100.00;62182.44;6283272;20;2744043;-60
2023/02/01 00:07:39;;;;;;;;;6.50;6.50;;;;;-146.39;100.00;62182.44;6314426;20;2745044;-60
2023/02/01 00:10:10;;;;;;;;;6.75;6.75;;;;;-146.39;100.00;62182.44;6302569;20;1804579;-59
2023/02/01 00:12:38;;;;;;;;;7.50;7.50;;;;;-146.39;100.00;62182.44;6316137;20;2752354;-59
2023/02/01 00:15:08;;;;;;;;;3.50;3.50;;;;;-146.39;100.00;62182.44;6331174;20;1823395;-59
2023/02/01 00:17:36;;;;;;;;;6.25;6.00;;;;;-146.39;100.00;62182.44;6329310;20;1820092;-59
2023/02/01 00:20:05;;;;;;;;;13.00;7.50;;;;;-146.39;100.00;62182.44;6313017;20;2768020;-59
2023/02/01 00:22:33;;;;;;;;;7.67;7.67;;;;;-146.39;100.00;62182.44;6285266;20;3457581;-59
2023/02/01 00:25:02;;;;;;;;;2.00;2.00;;;;;-146.39;100.00;62182.44;6333921;20;1824250;-59
2023/02/01 00:27:30;;;;;;;;;9.00;6.00;;;;;-146.39;100.00;62182.44;6334887;20;1831692;-59
2023/02/01 00:29:59;;;;;;;;;3.00;3.00;;;;;-146.39;100.00;62182.44;6335532;20;1818100;-60
2023/02/01 00:32:27;;;;;;;;;7.00;6.25;;;;;-146.39;100.00;62182.44;6334302;20;1816000;-60
2023/02/01 00:34:55;;;;;;;;;6.50;2.50;;;;;-146.39;100.00;62182.44;6313843;20;2744073;-60
2023/02/01 00:37:23;;;;;;;;;4.00;4.00;;;;;-146.39;100.00;62182.44;6333670;20;1819000;-60
2023/02/01 00:39:54;;;;;;;;;5.50;5.50;;;;;-146.39;100.00;62182.44;6332794;20;1825404;-59
2023/02/01 00:42:23;;;;;;;;;8.00;7.00;;;;;-146.39;100.00;62182.44;6335114;20;1818341;-60
2023/02/01 00:44:51;;;;;;;;;5.50;4.75;;;;;-146.39;100.00;62182.44;6335250;20;1823020;-60
2023/02/01 00:47:19;;;;;;;;;11.00;5.50;;;;;-146.39;100.00;62182.44;6310728;20;2769007;-60
2023/02/01 00:49:47;;;;;;;;;14.50;8.00;;;;;-146.39;100.00;62182.44;6278500;20;2769197;-59
2023/02/01 00:52:15;;;;;;;;;2.00;2.00;;;;;-146.39;100.00;62182.44;6282184;20;3453518;-60
2023/02/01 00:54:42;;;;;;;;;10.00;6.00;;;;;-146.39;100.00;62182.44;6314637;20;2760697;-59
2023/02/01 00:57:11;;;;;;;;;8.00;8.00;;;;;-146.39;100.00;62182.44;6302073;20;1819150;-60
2023/02/01 00:59:39;;;;;;;;;9.75;7.00;;;;;-146.39;100.00;62182.44;6331182;20;1822186;-60
2023/02/01 01:02:08;;;;;;;;;6.25;6.00;;;;;-146.39;100.00;62182.44;6329039;20;1825338;-59
2023/02/01 01:04:37;;;;;;;;;6.25;4.75;;;;;-146.39;100.00;62182.44;6329812;20;1820326;-60
2023/02/01 01:07:06;;;;;;;;;5.50;5.25;;;;;-146.39;100.00;62182.44;6333727;20;1817013;-60
2023/02/01 01:09:34;;;;;;;;;9.75;5.25;;;;;-146.39;100.00;62182.44;6326406;20;1825391;-60
2023/02/01 01:12:02;;;;;;;;;6.50;5.00;;;;;-146.39;100.00;62182.44;6316757;20;2750395;-60
2023/02/01 01:14:32;;;;;;;;;8.25;6.00;;;;;-146.39;100.00;62182.44;6330697;20;1811828;-60
2023/02/01 01:17:00;;;;;;;;;6.00;3.00;;;;;-146.39;100.00;62182.44;6331521;20;1823471;-60
2023/02/01 01:19:28;;;;;;;;;7.50;5.00;;;;;-146.39;100.00;62182.44;6312940;20;2750311;-60
2023/02/01 01:21:57;;;;;;;;;6.25;6.25;;;;;-146.39;100.00;62182.44;6332475;20;1821289;-59
2023/02/01 01:24:24;;;;;;;;;10.00;5.00;;;;;-146.39;100.00;62182.44;6313799;20;2757675;-60
2023/02/01 01:26:53;;;;;;;;;6.75;5.25;;;;;-146.39;100.00;62182.44;6330214;20;1817989;-60
2023/02/01 01:29:21;;;;;;;;;6.75;6.75;;;;;-146.39;100.00;62182.44;6330355;20;1825386;-60
2023/02/01 01:31:50;;;;;;;;;4.50;2.00;;;;;-146.39;100.00;62182.44;6331781;20;1819096;-59
2023/02/01 01:34:18;;;;;;;;;8.00;6.25;;;;;-146.39;100.00;62182.44;6330037;20;1815386;-59
2023/02/01 01:36:47;;;;;;;;;6.50;4.25;;;;;-146.39;100.00;62182.44;6329624;20;1821664;-60
2023/02/01 01:39:16;;;;;;;;;12.00;9.00;;;;;-146.39;100.00;62182.44;6331914;20;1813949;-60
2023/02/01 01:41:43;;;;;;;;;5.00;5.00;;;;;-146.39;100.00;62182.44;6314564;20;2745054;-59
2023/02/01 01:45:28;;;;;;;;;5.00;5.00;;;;;-146.39;100.00;62182.44;6329064;20;1818009;-59
2023/02/01 01:48:12;;;;;;;;;6.25;6.25;;;;;-146.39;100.00;62182.44;6326260;20;1825471;-60
2023/02/01 01:51:06;;;;;;;;;7.25;7.00;;;;;-146.39;100.00;62182.44;6322071;20;1825432;-60
2023/02/01 01:54:00;;;;;;;;;7.75;7.25;;;;;-146.39;100.00;62182.44;6328710;20;1820196;-60
2023/02/01 01:56:31;;;;;;;;;7.25;4.75;;;;;-146.39;100.00;62182.44;6329370;20;1825460;-60
2023/02/01 01:59:01;;;;;;;;;7.50;6.00;;;;;-146.39;100.00;62182.44;6330192;20;1815115;-60
2023/02/01 02:01:32;;;;;;;;;7.67;6.50;;;;;-146.39;100.00;62182.44;6349089;20;1804476;-60
2023/02/01 02:04:02;;;;;;;;;8.67;8.33;;;;;-146.39;100.00;62182.44;6300216;20;1812326;-60
2023/02/01 02:06:45;;;;;;;;;8.50;7.00;;;;;-146.39;100.00;62182.44;6311258;20;2748773;-60
2023/02/01 02:09:13;;;;;;;;;5.50;4.00;;;;;-146.39;100.00;62182.44;6312905;20;2756567;-60
2023/02/01 02:11:42;;;;;;;;;7.00;7.00;;;;;-146.39;100.00;62182.44;6332100;20;1816070;-60
2023/02/01 02:14:15;;;;;;;;;10.00;6.00;;;;;-146.39;100.00;62182.44;6313943;20;2768023;-60
2023/02/01 02:16:43;;;;;;;;;5.00;4.00;;;;;-146.39;100.00;62182.44;6297897;20;1825090;-60
2023/02/01 02:19:56;;;;;;;;;5.00;3.00;;;;;-146.39;100.00;62182.44;6304890;20;2752506;-60
2023/02/01 02:23:01;;;;;;;;;7.00;4.75;;;;;-146.39;100.00;62182.44;6298951;20;1823300;-59
2023/02/01 02:26:06;;;;;;;;;6.67;6.17;;;;;-146.39;100.00;62182.44;6356590;20;1806572;-60
2023/02/01 02:29:21;;;;;;;;;69.67;51.00;;;;;-146.39;100.00;62182.44;6282552;20;2884841;-60
2023/02/01 02:32:50;;;;;;;;;7.00;7.00;;;;;-146.39;100.00;62182.44;6332214;20;1819191;-60
2023/02/01 02:35:55;;;;;;;;;7.75;7.50;;;;;-146.39;100.00;62182.44;6332704;20;1811900;-60
2023/02/01 02:39:13;;;;;;;;;0.00;0.00;;;;;-146.39;100.00;62182.44;6351306;20;2694254;-60
2023/02/01 02:48:46;;;;;;;;;7.00;6.00;;;;;-146.39;100.00;62182.44;6331213;20;1816029;-59
2023/02/01 02:54:50;;;;;;;;;6.67;5.67;;;;;-146.39;100.00;62182.44;6282323;20;3462793;-59
2023/02/01 03:06:17;;;;;;;;;6.50;6.50;;;;;-146.39;100.00;62182.44;6317718;20;1808722;-59
2023/02/01 03:08:45;;;;;;;;;7.50;7.50;;;;;-146.39;100.00;62182.44;6304587;20;2736741;-59
2023/02/01 03:11:15;;;;;;;;;9.00;9.00;;;;;-146.39;100.00;62182.44;6304403;20;2758599;-60
2023/02/01 03:14:14;;;;;;;;;8.00;6.50;;;;;-146.39;100.00;62182.44;6285950;20;1808710;-59
2023/02/01 03:17:02;;;;;;;;;16.50;9.00;;;;;-146.39;100.00;62182.44;6306896;20;2780581;-59
2023/02/01 03:19:48;;;;;;;;;9.00;6.50;;;;;-146.39;100.00;62182.44;6293648;20;1828000;-59
2023/02/01 03:22:27;;;;;;;;;15.00;8.00;;;;;-146.39;100.00;62182.44;6314967;20;2766988;-59
2023/02/01 03:25:06;;;;;;;;;11.50;10.00;;;;;-146.39;100.00;62182.44;6282298;20;2777427;-59
2023/02/01 03:27:59;;;;;;;;;10.50;8.50;;;;;-146.39;100.00;62182.44;6280179;20;2763927;-59
2023/02/01 03:30:41;;;;;;;;;12.00;9.00;;;;;-146.39;100.00;62182.44;6283905;20;2763972;-59
2023/02/01 03:33:22;;;;;;;;;11.00;11.00;;;;;-146.39;100.00;62182.44;6283239;20;2796135;-59
2023/02/01 03:36:11;;;;;;;;;8.50;8.50;;;;;-146.39;100.00;62182.44;6303159;20;1827533;-59
2023/02/01 03:38:59;;;;;;;;;10.20;10.20;;;;;-146.39;100.00;62182.44;6343557;20;2747176;-59
2023/02/01 03:41:51;;;;;;;;;13.00;10.00;;;;;-146.39;100.00;62182.44;6283716;20;2771253;-59
2023/02/01 03:44:47;;;;;;;;;11.00;8.00;;;;;-146.39;100.00;62182.44;6287441;20;2772242;-60
2023/02/01 03:47:29;;;;;;;;;17.50;12.00;;;;;-146.39;100.00;62182.44;6278676;20;2796128;-60
2023/02/01 03:50:16;;;;;;;;;15.50;13.00;;;;;-146.39;100.00;62182.44;6279686;20;2806670;-59
2023/02/01 03:52:56;;;;;;;;;10.00;10.00;;;;;-146.39;100.00;62182.44;6284135;20;2777370;-59
2023/02/01 03:55:27;;;;;;;;;16.50;15.00;;;;;-146.39;100.00;62182.44;6282005;20;2800314;-59
2023/02/01 03:58:03;;;;;;;;;13.50;11.50;;;;;-146.39;100.00;62182.44;6286381;20;2779452;-60
2023/02/01 04:00:32;;;;;;;;;11.20;7.20;;;;;-146.39;100.00;62182.44;6309062;20;2757572;-59
2023/02/01 04:03:05;;;;;;;;;34.50;32.00;;;;;-146.39;100.00;62182.44;6315778;20;2858838;-59
2023/02/01 04:05:34;;;;;;;;;13.50;11.50;;;;;-146.39;100.00;62182.44;6278240;20;2798288;-60
2023/02/01 04:08:02;;;;;;;;;15.00;14.00;;;;;-146.39;100.00;62182.44;6276824;20;2795087;-59
2023/02/01 04:10:30;;;;;;;;;11.00;9.00;;;;;-146.39;100.00;62182.44;6281658;20;2754654;-60
2023/02/01 04:12:58;;;;;;;;;19.00;12.00;;;;;-146.39;100.00;62182.44;6279576;20;2812796;-59
2023/02/01 04:15:26;;;;;;;;;9.50;8.50;;;;;-146.39;100.00;62182.44;6300588;20;1800544;-60
2023/02/01 04:17:54;;;;;;;;;12.00;8.00;;;;;-146.39;100.00;62182.44;6310603;20;2757654;-59
2023/02/01 04:20:23;;;;;;;;;9.00;7.75;;;;;-146.39;100.00;62182.44;6300008;20;1812892;-59
2023/02/01 04:22:52;;;;;;;;;7.75;7.75;;;;;-146.39;100.00;62182.44;6334574;20;1800494;-60
2023/02/01 04:25:20;;;;;;;;;13.50;11.00;;;;;-146.39;100.00;62182.44;6313272;20;2783867;-59
2023/02/01 04:27:48;;;;;;;;;12.00;7.50;;;;;-146.39;100.00;62182.44;6284135;20;2763841;-60
2023/02/01 04:30:17;;;;;;;;;7.00;6.00;;;;;-146.39;100.00;62182.44;6296818;20;1813967;-60
2023/02/01 04:32:46;;;;;;;;;6.50;6.50;;;;;-146.39;100.00;62182.44;6332927;20;1819608;-60
2023/02/01 04:35:15;;;;;;;;;3.50;3.50;;;;;-146.39;100.00;62182.44;6333450;20;1824370;-59
2023/02/01 04:37:42;;;;;;;;;9.00;8.00;;;;;-146.39;100.00;62182.44;6315557;20;2747178;-59
2023/02/01 04:40:11;;;;;;;;;3.33;3.33;;;;;-146.39;100.00;62182.44;6315146;20;3456596;-59
2023/02/01 04:42:40;;;;;;;;;4.00;4.00;;;;;-146.39;100.00;62182.44;6332591;20;1813871;-59
2023/02/01 04:45:09;;;;;;;;;6.00;3.00;;;;;-146.39;100.00;62182.44;6333863;20;1822168;-59
2023/02/01 04:47:37;;;;;;;;;5.00;5.00;;;;;-146.39;100.00;62182.44;6330412;20;1825386;-60
2023/02/01 04:50:10;;;;;;;;;9.00;7.00;;;;;-146.39;100.00;62182.44;6310630;20;2732577;-60
2023/02/01 04:52:38;;;;;;;;;6.00;3.50;;;;;-146.39;100.00;62182.44;6313470;20;2744065;-60
2023/02/01 04:55:06;;;;;;;;;8.00;7.00;;;;;-146.39;100.00;62182.44;6318657;20;2745195;-60
2023/02/01 04:57:35;;;;;;;;;7.00;7.00;;;;;-146.39;100.00;62182.44;6330440;20;1819201;-59
2023/02/01 05:00:03;;;;;;;;;12.00;7.50;;;;;-146.39;100.00;62182.44;6313299;20;2756576;-59
2023/02/01 05:02:32;;;;;;;;;8.00;4.00;;;;;-146.39;100.00;62182.44;6313429;20;2756828;-59
2023/02/01 05:05:01;;;;;;;;;7.00;6.00;;;;;-146.39;100.00;62182.44;6327823;20;1805185;-61
2023/02/01 05:07:29;;;;;;;;;14.00;8.50;;;;;-146.39;100.00;62182.44;6307744;20;2773309;-59
2023/02/01 05:09:56;;;;;;;;;9.00;6.00;;;;;-146.39;100.00;62182.44;6282920;20;2750302;-60
2023/02/01 05:15:11;;;;;;;;;6.00;6.00;;;;;-146.39;100.00;62182.44;6330848;20;1819294;-59
2023/02/01 05:17:40;;;;;;;;;6.00;6.00;;;;;-146.39;100.00;62182.44;6308130;20;2746375;-58
2023/02/01 05:20:10;;;;;;;;;7.00;5.50;;;;;-146.39;100.00;62182.44;6327752;20;1818903;-59
2023/02/01 05:22:39;;;;;;;;;3.00;3.00;;;;;-146.39;100.00;62182.44;6332999;20;1811942;-59
2023/02/01 05:25:07;;;;;;;;;7.00;4.00;;;;;-146.39;100.00;62182.44;6312427;20;2747193;-60
2023/02/01 05:27:36;;;;;;;;;7.25;7.25;;;;;-146.39;100.00;62182.44;6325362;20;1817527;-59
2023/02/01 05:30:08;;;;;;;;;4.33;3.00;;;;;-146.39;100.00;62182.44;6316806;20;3449216;-59
2023/02/01 05:32:36;;;;;;;;;2.00;2.00;;;;;-146.39;100.00;62182.44;6335185;20;1816003;-59
2023/02/01 05:35:06;;;;;;;;;3.50;2.50;;;;;-146.39;100.00;62182.44;6333691;20;1818044;-58
2023/02/01 05:37:35;;;;;;;;;5.00;5.00;;;;;-146.39;100.00;62182.44;6329241;20;1822465;-59
2023/02/01 05:40:03;;;;;;;;;3.50;3.50;;;;;-146.39;100.00;62182.44;6312679;20;2754542;-59
2023/02/01 05:42:32;;;;;;;;;3.00;3.00;;;;;-146.39;100.00;62182.44;6329891;20;1816021;-59
2023/02/01 05:45:00;;;;;;;;;4.00;4.00;;;;;-146.39;100.00;62182.44;6328696;20;1816393;-59
2023/02/01 05:47:28;;;;;;;;;17.00;14.00;;;;;-146.39;100.00;62182.44;6306509;20;2806702;-59
2023/02/01 05:49:56;;;;;;;;;3.00;3.00;;;;;-146.39;100.00;62182.44;6286194;20;2744141;-60
2023/02/01 05:52:24;;;;;;;;;7.00;6.00;;;;;-146.39;100.00;62182.44;6325972;20;1815748;-59
2023/02/01 05:54:53;;;;;;;;;4.00;3.00;;;;;-146.39;100.00;62182.44;6331713;20;1817452;-59
2023/02/01 05:57:21;;;;;;;;;3.50;3.25;;;;;-146.39;100.00;62182.44;6325461;20;1810906;-61
2023/02/01 05:59:50;;;;;;;;;5.75;5.50;;;;;-146.39;100.00;62182.44;6329018;20;1823270;-59
2023/02/01 06:02:18;;;;;;;;;7.25;4.00;;;;;-146.39;100.00;62182.44;6331457;20;1822240;-60
2023/02/01 06:04:47;;;;;;;;;3.00;3.00;;;;;-146.39;100.00;62182.44;6332347;20;1813973;-59
2023/02/01 06:07:16;;;;;;;;;4.00;4.00;;;;;-146.39;100.00;62182.44;6333789;20;1820292;-59
2023/02/01 06:09:44;;;;;;;;;5.00;4.50;;;;;-146.39;100.00;62182.44;6325716;20;1825392;-59
2023/02/01 06:12:14;;;;;;;;;2.25;2.25;;;;;-146.39;100.00;62182.44;6330124;20;1815936;-59
2023/02/01 06:14:43;;;;;;;;;2.25;2.25;;;;;-146.39;100.00;62182.44;6329753;20;1810837;-59
2023/02/01 06:17:11;;;;;;;;;4.00;4.00;;;;;-146.39;100.00;62182.44;6325281;20;1812346;-58
2023/02/01 06:19:40;;;;;;;;;6.25;4.00;;;;;-146.39;100.00;62182.44;6326988;20;1811938;-60
2023/02/01 06:22:08;;;;;;;;;3.00;3.00;;;;;-146.39;100.00;62182.44;6326973;20;1817123;-59
2023/02/01 06:24:37;;;;;;;;;4.00;4.00;;;;;-146.39;100.00;62182.44;6313249;20;3468073;-58
2023/02/01 06:27:05;;;;;;;;;3.25;3.25;;;;;-146.39;100.00;62182.44;6331703;20;1820302;-59
2023/02/01 06:29:35;;;;;;;;;6.00;6.00;;;;;-146.39;100.00;62182.44;6332916;20;1821203;-57
2023/02/01 06:32:03;;;;;;;;;3.67;3.67;;;;;-146.39;100.00;62182.44;6314055;20;3460708;-59
2023/02/01 06:34:31;;;;;;;;;6.25;4.50;;;;;-146.39;100.00;62182.44;6328973;20;1817667;-59
2023/02/01 06:36:59;;;;;;;;;6.50;6.50;;;;;-146.39;100.00;62182.44;6313796;20;2743004;-58
2023/02/01 06:39:28;;;;;;;;;6.00;3.00;;;;;-146.39;100.00;62182.44;6333086;20;1808730;-59
2023/02/01 06:41:55;;;;;;;;;1.00;1.00;;;;;-146.39;100.00;62182.44;6316257;20;3436718;-60
2023/02/01 06:44:23;;;;;;;;;7.00;6.00;;;;;-146.39;100.00;62182.44;6308257;20;2745144;-60
2023/02/01 06:46:52;;;;;;;;;5.25;4.00;;;;;-146.39;100.00;62182.44;6322151;20;1818258;-60
2023/02/01 06:49:20;;;;;;;;;4.00;4.00;;;;;-146.39;100.00;62182.44;6313050;20;2755594;-59
2023/02/01 06:51:47;;;;;;;;;4.00;4.00;;;;;-146.39;100.00;62182.44;6280627;20;2754631;-60
2023/02/01 06:54:15;;;;;;;;;2.00;2.00;;;;;-146.39;100.00;62182.44;6281961;20;2729457;-61
2023/02/01 06:56:44;;;;;;;;;4.00;2.50;;;;;-146.39;100.00;62182.44;6335181;20;1814951;-60
2023/02/01 06:59:12;;;;;;;;;2.50;2.00;;;;;-146.39;100.00;62182.44;6318014;20;2753404;-61
2023/02/01 07:01:42;;;;;;;;;4.00;3.00;;;;;-146.39;100.00;62182.44;6288783;20;2738845;-61
2023/02/01 07:04:12;;;;;;;;;6.75;4.00;;;;;-146.39;100.00;62182.44;6339303;20;1812863;-61
2023/02/01 07:06:41;;;;;;;;;3.25;3.25;;;;;-146.39;100.00;62182.44;6332789;20;1813958;-61
2023/02/01 07:09:09;;;;;;;;;2.00;2.00;;;;;-146.39;100.00;62182.44;6307118;20;3440958;-61
2023/02/01 07:11:40;;;;;;;;;6.00;3.00;;;;;-146.39;100.00;62182.44;6302706;20;1815003;-61
2023/02/01 07:14:11;;;;;;;;;8.00;6.00;;;;;-146.39;100.00;62182.44;6289105;20;2744081;-61
2023/02/01 07:16:39;;;;;;;;;8.00;6.50;;;;;-146.39;100.00;62182.44;6321124;20;2749373;-64
2023/02/01 07:19:07;;;;;;;;;5.50;4.00;;;;;-146.39;100.00;62182.44;6289765;20;2756754;-60
2023/02/01 07:21:35;;;;;;;;;4.50;4.50;;;;;-146.39;100.00;62182.44;6287415;20;2754468;-62
2023/02/01 07:24:03;;;;;;;;;3.00;3.00;;;;;-146.39;100.00;62182.44;6287691;20;2743048;-64
2023/02/01 07:26:31;;;;;;;;;4.00;4.00;;;;;-146.39;100.00;62182.44;6320269;20;2747336;-61
2023/02/01 07:28:59;;;;;;;;;3.75;3.75;;;;;-146.39;100.00;62182.44;6307074;20;1811413;-62
2023/02/01 07:31:28;;;;;;;;;5.50;5.50;;;;;-146.39;100.00;62182.44;6322827;20;2739923;-61
2023/02/01 07:33:58;;;;;;;;;3.00;3.00;;;;;-146.39;100.00;62182.44;6336509;20;1809688;-62
2023/02/01 07:36:25;;;;;;;;;5.00;5.00;;;;;-146.39;100.00;62182.44;6319088;20;2743017;-60
2023/02/01 07:38:54;;;;;;;;;35.00;24.33;;;;;-146.39;100.00;62182.44;6316868;20;3608833;-61
2023/02/01 07:41:23;;;;;;;;;6.00;6.00;;;;;-146.39;100.00;62182.44;6314772;20;2748316;-61
2023/02/01 07:43:55;;;;;;;;;10.00;10.00;;;;;-146.39;100.00;62182.44;6282178;20;2778517;-61
2023/02/01 07:46:24;;;;;;;;;9.00;8.00;;;;;-146.39;100.00;62182.44;6300875;20;1814955;-61
2023/02/01 07:48:52;;;;;;;;;9.50;8.00;;;;;-146.39;100.00;62182.44;6333755;20;1812921;-60
2023/02/01 07:51:21;;;;;;;;;7.25;7.00;;;;;-146.39;100.00;62182.44;6338228;20;1808739;-61
2023/02/01 07:53:50;;;;;;;;;8.75;7.75;;;;;-146.39;100.00;62182.44;6333965;20;1808721;-61
2023/02/01 07:56:22;;;;;;;;;7.00;6.00;;;;;-146.39;100.00;62182.44;6314539;20;2742403;-61
2023/02/01 07:58:55;;;;;;;;;7.83;7.83;;;;;-146.39;100.00;62182.44;6324704;20;1810700;-61
2023/02/01 08:01:26;;;;;;;;;6.00;6.00;;;;;-146.39;100.00;62182.44;6289229;20;2749218;-61
2023/02/01 08:03:59;;;;;;;;;6.00;6.00;;;;;-146.39;100.00;62182.44;6283744;20;2749262;-61
2023/02/01 08:06:31;;;;;;;;;7.50;7.00;;;;;-146.39;100.00;62182.44;6283591;20;2748611;-62
2023/02/01 08:09:00;;;;;;;;;4.25;2.00;;;;;-146.39;100.00;62182.44;6297554;20;1811984;-61
2023/02/01 08:11:28;;;;;;;;;4.00;3.00;;;;;-146.39;100.00;62182.44;6314961;20;2744081;-62
2023/02/01 08:13:58;;;;;;;;;4.25;4.25;;;;;-146.39;100.00;62182.44;6335638;20;1812916;-62
2023/02/01 08:16:27;;;;;;;;;7.00;6.00;;;;;-146.39;100.00;62182.44;6318669;20;2748446;-62
2023/02/01 08:18:55;;;;;;;;;6.50;6.00;;;;;-146.39;100.00;62182.44;6286271;20;2750420;-60
2023/02/01 08:21:36;;;;;;;;;5.00;3.00;;;;;-146.39;100.00;62182.44;6285846;20;2752357;-62
2023/02/01 08:24:08;;;;;;;;;8.00;4.00;;;;;-146.39;100.00;62182.44;6287386;20;2774333;-63
2023/02/01 08:26:36;;;;;;;;;5.00;2.00;;;;;-146.39;100.00;62182.44;6284099;20;2756560;-62
2023/02/01 08:29:07;;;;;;;;;7.50;7.00;;;;;-146.39;100.00;62182.44;6317139;20;2748337;-61
2023/02/01 08:31:35;;;;;;;;;6.50;6.50;;;;;-146.39;100.00;62182.44;6287983;20;2736735;-62
2023/02/01 08:34:04;;;;;;;;;4.00;4.00;;;;;-146.39;100.00;62182.44;6317262;20;2756505;-61
2023/02/01 08:36:32;;;;;;;;;7.00;4.00;;;;;-146.39;100.00;62182.44;6287793;20;2750297;-62
2023/02/01 08:39:00;;;;;;;;;15.00;8.00;;;;;-146.39;100.00;62182.44;6289249;20;2769023;-61
2023/02/01 08:41:30;;;;;;;;;10.00;10.00;;;;;-146.39;100.00;62182.44;6306973;20;2775337;-62
2023/02/01 08:43:58;;;;;;;;;10.00;5.50;;;;;-146.39;100.00;62182.44;6287071;20;2758883;-61
2023/02/01 08:46:26;;;;;;;;;10.00;7.00;;;;;-146.39;100.00;62182.44;6283886;20;2769080;-61
2023/02/01 08:48:54;;;;;;;;;13.00;9.00;;;;;-146.39;100.00;62182.44;6289903;20;2762892;-61
2023/02/01 08:51:23;;;;;;;;;9.50;8.50;;;;;-146.39;100.00;62182.44;6284036;20;2754629;-62
2023/02/01 08:53:51;;;;;;;;;11.50;11.00;;;;;-146.39;100.00;62182.44;6280582;20;2788830;-62
2023/02/01 08:56:22;;;;;;;;;7.50;7.50;;;;;-146.39;100.00;62182.44;6329676;20;1805509;-61
2023/02/01 08:58:50;;;;;;;;;6.75;6.75;;;;;-146.39;100.00;62182.44;6306054;20;1802477;-61
2023/02/01 09:01:18;;;;;;;;;7.00;7.00;;;;;-146.39;100.00;62182.44;6316880;20;2743251;-63
2023/02/01 09:03:46;;;;;;;;;5.00;5.00;;;;;-146.39;100.00;62182.44;6285156;20;2748239;-63
2023/02/01 09:06:15;;;;;;;;;5.00;5.00;;;;;-146.39;100.00;62182.44;6316534;20;2741990;-62
2023/02/01 09:08:44;;;;;;;;;4.00;4.00;;;;;-146.39;100.00;62182.44;6314164;20;2754406;-63
2023/02/01 09:11:18;;;;;;;;;4.00;2.50;;;;;-146.39;100.00;62182.44;6280463;20;2753411;-62
2023/02/01 09:13:48;;;;;;;;;3.00;3.00;;;;;-146.39;100.00;62182.44;6285133;20;2739871;-62
2023/02/01 09:16:17;;;;;;;;;4.00;3.75;;;;;-146.39;100.00;62182.44;6299520;20;1812337;-61
2023/02/01 09:18:45;;;;;;;;;4.00;4.00;;;;;-146.39;100.00;62182.44;6315077;20;2756743;-62
2023/02/01 09:21:34;;;;;;;;;5.75;4.50;;;;;-146.39;100.00;62182.44;6303371;20;1816031;-61
2023/02/01 09:24:03;;;;;;;;;35.00;31.50;;;;;-146.39;100.00;62182.44;6309691;20;2864857;-62
2023/02/01 09:26:31;;;;;;;;;4.00;3.00;;;;;-146.39;100.00;62182.44;6286846;20;2737077;-61
2023/02/01 09:29:00;;;;;;;;;5.00;4.00;;;;;-146.39;100.00;62182.44;6317032;20;2757002;-62
2023/02/01 09:31:29;;;;;;;;;1.00;1.00;;;;;-146.39;100.00;62182.44;6296090;20;2735845;-61
2023/02/01 09:33:57;;;;;;;;;3.50;3.00;;;;;-146.39;100.00;62182.44;6284945;20;2756524;-62
2023/02/01 09:36:25;;;;;;;;;5.00;2.50;;;;;-146.39;100.00;62182.44;6285952;20;2748214;-62
2023/02/01 09:38:53;;;;;;;;;3.00;3.00;;;;;-146.39;100.00;62182.44;6337496;20;1816896;-61
2023/02/01 09:42:12;;;;;;;;;3.50;3.50;;;;;-146.39;100.00;62182.44;6328282;20;1817075;-61
2023/02/01 09:45:06;;;;;;;;;7.00;5.00;;;;;-146.39;100.00;62182.44;6317790;20;2748250;-61
2023/02/01 09:47:36;;;;;;;;;8.50;6.00;;;;;-146.39;100.00;62182.44;6279722;20;2736737;-62
2023/02/01 09:50:35;;;;;;;;;8.00;5.50;;;;;-146.39;100.00;62182.44;6313554;20;2745034;-62
2023/02/01 09:53:15;;;;;;;;;5.00;5.00;;;;;-146.39;100.00;62182.44;6285080;20;2743003;-61
2023/02/01 09:55:55;;;;;;;;;9.50;9.50;;;;;-146.39;100.00;62182.44;6281718;20;2760825;-62
2023/02/01 09:58:47;;;;;;;;;46.00;38.67;;;;;-146.39;100.00;62182.44;6305759;20;3603483;-62
2023/02/01 10:01:24;;;;;;;;;3.00;3.00;;;;;-146.39;100.00;62182.44;6297932;20;1812986;-61
2023/02/01 10:04:07;;;;;;;;;8.00;8.00;;;;;-146.39;100.00;62182.44;6316794;20;2748414;-61
2023/02/01 10:07:14;;;;;;;;;7.00;4.00;;;;;-146.39;100.00;62182.44;6282208;20;2751326;-62
2023/02/01 10:10:09;;;;;;;;;4.50;3.00;;;;;-146.39;100.00;62182.44;6294038;20;2744147;-62
2023/02/01 10:13:08;;;;;;;;;5.00;4.00;;;;;-146.39;100.00;62182.44;6297938;20;1814912;-61
2023/02/01 10:16:03;;;;;;;;;4.00;4.00;;;;;-146.39;100.00;62182.44;6316362;20;2774237;-61
2023/02/01 10:18:52;;;;;;;;;6.00;6.00;;;;;-146.39;100.00;62182.44;6285080;20;2748226;-61
2023/02/01 10:21:54;;;;;;;;;10.50;4.50;;;;;-146.39;100.00;62182.44;6277876;20;2768013;-61
2023/02/01 10:24:59;;;;;;;;;5.00;4.00;;;;;-146.39;100.00;62182.44;6299570;20;1811877;-60
2023/02/01 10:27:37;;;;;;;;;5.50;4.00;;;;;-146.39;100.00;62182.44;6312849;20;2745117;-61
2023/02/01 10:30:21;;;;;;;;;8.00;5.50;;;;;-146.39;100.00;62182.44;6285157;20;2747190;-61
2023/02/01 10:32:57;;;;;;;;;4.00;4.00;;;;;-146.39;100.00;62182.44;6287722;20;2757598;-61
2023/02/01 10:35:31;;;;;;;;;3.50;3.50;;;;;-146.39;100.00;62182.44;6288753;20;2746115;-60
2023/02/01 10:38:02;;;;;;;;;9.00;8.00;;;;;-146.39;100.00;62182.44;6288264;20;2735824;-61
2023/02/01 10:40:30;;;;;;;;;10.00;9.00;;;;;-146.39;100.00;62182.44;6283851;20;2772229;-61
2023/02/01 10:43:02;;;;;;;;;11.50;8.00;;;;;-146.39;100.00;62182.44;6287061;20;2761877;-61
2023/02/01 10:45:34;;;;;;;;;6.00;5.00;;;;;-146.39;100.00;62182.44;6288034;20;2750802;-60
2023/02/01 10:48:03;;;;;;;;;4.00;4.00;;;;;-146.39;100.00;62182.44;6282374;20;2754467;-61
2023/02/01 10:50:55;;;;;;;;;3.00;3.00;;;;;-146.39;100.00;62182.44;6281882;20;2753442;-60
2023/02/01 10:54:01;;;;;;;;;3.50;3.00;;;;;-146.39;100.00;62182.44;6285967;20;2743021;-60
2023/02/01 10:56:31;;;;;;;;;4.00;4.00;;;;;-146.39;100.00;62182.44;6286313;20;2756534;-61
2023/02/01 10:59:20;;;;;;;;;5.00;5.00;;;;;-146.39;100.00;62182.44;6288713;20;2740091;-61
2023/02/01 11:01:51;;;;;;;;;5.00;3.00;;;;;-146.39;100.00;62182.44;6334900;20;1805713;-61
2023/02/01 11:04:26;;;;;;;;;9.60;8.00;;;;;-146.39;100.00;62182.44;6341458;20;2751359;-61
2023/02/01 11:07:16;;;;;;;;;7.50;7.50;;;;;-146.39;100.00;62182.44;6316475;20;2746107;-61
2023/02/01 11:09:54;;;;;;;;;11.60;9.40;;;;;-146.39;100.00;62182.44;6308173;20;2784689;-61
2023/02/01 11:12:40;;;;;;;;;11.00;9.00;;;;;-146.39;100.00;62182.44;6285492;20;2772171;-62
2023/02/01 11:15:25;;;;;;;;;11.00;10.00;;;;;-146.39;100.00;62182.44;6285235;20;2794051;-62
2023/02/01 11:17:56;;;;;;;;;6.00;6.00;;;;;-146.39;100.00;62182.44;6286938;20;2730473;-62
2023/02/01 11:20:40;;;;;;;;;5.00;5.00;;;;;-146.39;100.00;62182.44;6316682;20;2748807;-60
2023/02/01 11:23:24;;;;;;;;;6.00;6.00;;;;;-146.39;100.00;62182.44;6284976;20;2746151;-61
2023/02/01 11:25:59;;;;;;;;;10.40;10.00;;;;;-146.39;100.00;62182.44;6307250;20;2781645;-62
2023/02/01 11:28:33;;;;;;;;;6.00;6.00;;;;;-146.39;100.00;62182.44;6304349;20;1810793;-61
2023/02/01 11:31:10;;;;;;;;;7.00;7.00;;;;;-146.39;100.00;62182.44;6315408;20;2746149;-61
2023/02/01 11:33:48;;;;;;;;;9.00;7.00;;;;;-146.39;100.00;62182.44;6312570;20;2748204;-61
2023/02/01 11:36:25;;;;;;;;;7.50;6.00;;;;;-146.39;100.00;62182.44;6282649;20;2744061;-60
2023/02/01 11:39:10;;;;;;;;;6.00;6.00;;;;;-146.39;100.00;62182.44;6302766;20;2740122;-60
2023/02/01 11:42:26;;;;;;;;;8.00;8.00;;;;;-146.39;100.00;62182.44;6317021;20;2749250;-59
2023/02/01 11:45:28;;;;;;;;;10.00;6.00;;;;;-146.39;100.00;62182.44;6283769;20;2760693;-60